Terminal Aerodrome Forecast
Issued by NWS Chicago, IL

Home | Current Version | Previous Version | Text Only | Print | Product List | Glossary On
Versions: 1 2 3 4 5 6 7 8 9 10 11 12 13 14 15 16 17 18 19 20 21 22 23 24 25 26 27 28 29 30 31
000
FTUS43 KLOT 240900 AAA
TAFRFD
TAF AMD
KRFD 240900Z 2409/2506 30014G22KT 5SM RA SCT008 OVC012
     FM241600 31016G25KT 6SM -SHRA SCT008 OVC015
     FM241900 30017G28KT P6SM BKN025
     FM242200 29015G24KT P6SM SCT025 BKN035
     FM250200 29010KT P6SM SCT035=

USA.gov is the U.S. government's official web portal to all federal, state and local government web resources and services.